Washington, District of Columbia
Traffic Map
Current Weather Conditions
Washington, District of Columbia
Broken Clouds
Broken Clouds

Feels Like: 0°
Wind Chill: Ceiling: 8500
Heat Index: Visibility: 10mi
Dew Point: -7° Wind: 5mph
Humidity: 52% Direction: 330° (NNW)
Pressure: 30.31in Gusts: 0mph
Raw Report DataKDCA 210452Z 33004KT 10SM BKN085 02/M07 A3031 RMK AO2 SLP264 T00221067 400391011
Traffic Incident Summary
Active as of:
Severity:
Category:
InformationThere was an issue retrieving the traffic information for this location. Please try a different location or try again shortly.
Advertisements
Track Severe Weather on mobile